createdAt,value
2023-03-02T00:01:43.559Z,64.07
2023-03-02T00:04:27.304Z,63.59
2023-03-02T00:06:58.341Z,63.49
2023-03-02T00:09:24.790Z,63.58
2023-03-02T00:11:51.622Z,63.94
2023-03-02T00:14:18.015Z,63.80
2023-03-02T00:16:44.380Z,64.44
2023-03-02T00:19:10.784Z,64.05
2023-03-02T00:21:37.181Z,63.74
2023-03-02T00:24:04.494Z,64.30
2023-03-02T00:26:34.620Z,63.79
2023-03-02T00:29:01.644Z,64.44
2023-03-02T00:31:28.080Z,64.92
2023-03-02T00:33:54.669Z,64.36
2023-03-02T00:36:22.121Z,64.69
2023-03-02T00:38:48.550Z,64.14
2023-03-02T00:41:16.355Z,64.22
2023-03-02T00:43:43.005Z,64.26
2023-03-02T00:46:14.064Z,64.07
2023-03-02T00:48:40.822Z,64.89
2023-03-02T00:51:07.599Z,65.17
2023-03-02T00:53:35.306Z,65.14
2023-03-02T00:56:03.037Z,65.43
2023-03-02T00:58:30.317Z,65.33
2023-03-02T01:00:57.551Z,65.38
2023-03-02T01:03:24.080Z,65.52
2023-03-02T01:05:55.242Z,65.76
2023-03-02T01:08:23.413Z,65.41
2023-03-02T01:10:49.862Z,65.91
2023-03-02T01:13:16.225Z,65.25
2023-03-02T01:15:42.717Z,65.88
2023-03-02T01:18:09.432Z,65.68
2023-03-02T01:20:36.548Z,66.52
2023-03-02T01:23:02.912Z,66.17
2023-03-02T01:25:29.335Z,66.30
2023-03-02T01:27:55.700Z,66.10
2023-03-02T01:30:22.163Z,66.29
2023-03-02T01:32:48.550Z,67.38
2023-03-02T01:35:14.939Z,67.69
2023-03-02T01:37:41.382Z,67.43
2023-03-02T01:40:09.142Z,67.43
2023-03-02T01:42:40.357Z,68.22
2023-03-02T01:45:43.756Z,68.43
2023-03-02T01:48:12.389Z,68.34
2023-03-02T01:50:39.502Z,69.06
2023-03-02T01:53:06.501Z,68.54
2023-03-02T01:55:36.704Z,69.01
2023-03-02T01:58:05.250Z,70.42
2023-03-02T02:00:38.572Z,70.20
2023-03-02T02:03:10.665Z,70.31
2023-03-02T02:05:39.072Z,70.40
2023-03-02T02:08:06.454Z,69.04
2023-03-02T02:10:34.112Z,69.98
2023-03-02T02:13:01.192Z,69.22
2023-03-02T02:15:27.668Z,68.73
2023-03-02T02:17:55.596Z,68.70
2023-03-02T02:20:33.963Z,68.58
2023-03-02T02:23:21.376Z,68.55
2023-03-02T02:25:53.005Z,68.93
2023-03-02T02:28:23.241Z,68.94
2023-03-02T02:30:56.136Z,69.10
2023-03-02T02:33:24.489Z,69.89
2023-03-02T02:35:56.934Z,70.85
2023-03-02T02:38:24.911Z,70.13
2023-03-02T02:41:02.778Z,69.71
2023-03-02T02:43:31.183Z,70.01
2023-03-02T02:45:58.959Z,70.02
2023-03-02T02:48:30.970Z,70.52
2023-03-02T02:51:02.934Z,70.13
2023-03-02T02:53:42.616Z,69.94
2023-03-02T02:56:10.425Z,70.09
2023-03-02T02:58:51.095Z,70.73
2023-03-02T03:01:20.108Z,70.67
2023-03-02T03:03:51.700Z,70.43
2023-03-02T03:06:21.100Z,70.62
2023-03-02T03:08:47.418Z,71.36
2023-03-02T03:11:15.878Z,71.78
2023-03-02T03:13:43.614Z,72.87
2023-03-02T03:16:13.733Z,71.80
2023-03-02T03:18:43.329Z,70.98
2023-03-02T03:21:09.692Z,71.16
2023-03-02T03:23:38.239Z,70.73
2023-03-02T03:26:07.762Z,70.99
2023-03-02T03:28:35.660Z,70.98
2023-03-02T03:31:02.461Z,70.91
2023-03-02T03:33:28.915Z,71.80
2023-03-02T03:35:55.314Z,71.27
2023-03-02T03:38:21.781Z,71.71
2023-03-02T03:40:48.176Z,72.79
2023-03-02T03:43:15.189Z,72.99
2023-03-02T03:45:41.658Z,72.91
2023-03-02T03:48:08.025Z,72.51
2023-03-02T03:50:34.387Z,73.63
2023-03-02T03:53:03.412Z,72.81
2023-03-02T03:55:30.176Z,72.59
2023-03-02T03:57:56.532Z,72.60
2023-03-02T04:00:23.245Z,73.52
2023-03-02T04:02:50.598Z,73.37
2023-03-02T04:05:17.622Z,73.57
2023-03-02T04:07:44.023Z,74.40
2023-03-02T04:10:12.242Z,74.65
2023-03-02T04:12:40.814Z,75.53
2023-03-02T04:15:10.091Z,75.93
2023-03-02T04:17:36.473Z,74.86
2023-03-02T04:20:07.616Z,74.17
2023-03-02T04:22:34.063Z,73.55
2023-03-02T04:25:00.455Z,74.09
2023-03-02T04:27:26.836Z,74.57
2023-03-02T04:29:53.211Z,74.00
2023-03-02T04:32:19.916Z,75.00
2023-03-02T04:34:46.294Z,74.98
2023-03-02T04:37:13.277Z,75.36
2023-03-02T04:39:39.639Z,75.00
2023-03-02T04:42:06.043Z,75.00
2023-03-02T04:44:32.404Z,74.79
2023-03-02T04:46:58.810Z,74.26
2023-03-02T04:49:25.222Z,74.56
2023-03-02T04:51:51.650Z,75.15
2023-03-02T04:54:24.525Z,74.54
2023-03-02T04:56:51.587Z,75.69
2023-03-02T04:59:20.608Z,75.31
2023-03-02T05:01:47.841Z,76.91
2023-03-02T05:04:15.193Z,76.70
2023-03-02T05:06:41.613Z,76.92
2023-03-02T05:09:08.093Z,75.92
2023-03-02T05:11:34.766Z,75.58
2023-03-02T05:14:04.690Z,75.48
2023-03-02T05:16:33.814Z,75.74
2023-03-02T05:19:01.353Z,75.85
2023-03-02T05:21:27.984Z,75.86
2023-03-02T05:23:54.749Z,75.50
2023-03-02T05:26:21.132Z,76.17
2023-03-02T05:28:47.633Z,76.65
2023-03-02T05:31:19.811Z,76.35
2023-03-02T05:33:46.176Z,75.82
2023-03-02T05:36:12.570Z,76.48
2023-03-02T05:38:38.943Z,76.79
2023-03-02T05:41:05.431Z,76.58
2023-03-02T05:43:31.970Z,77.15
2023-03-02T05:46:00.474Z,77.04
2023-03-02T05:48:29.187Z,77.29
2023-03-02T05:50:55.874Z,78.28
2023-03-02T05:53:22.368Z,78.07
2023-03-02T05:55:49.189Z,77.69
2023-03-02T05:58:17.738Z,76.75
2023-03-02T06:00:44.991Z,77.00
2023-03-02T06:03:11.717Z,77.42
2023-03-02T06:05:38.354Z,76.86
2023-03-02T06:08:05.490Z,77.02
2023-03-02T06:10:32.599Z,77.87
2023-03-02T06:12:59.029Z,78.40
2023-03-02T06:15:25.605Z,78.72
2023-03-02T06:17:52.029Z,78.44
2023-03-02T06:20:18.511Z,78.43
2023-03-02T06:22:46.407Z,78.22
2023-03-02T06:25:16.244Z,79.74
2023-03-02T06:27:43.821Z,79.00
2023-03-02T06:30:14.310Z,79.06
2023-03-02T06:32:41.309Z,78.57
2023-03-02T06:35:08.991Z,78.78
2023-03-02T06:37:35.555Z,80.01
2023-03-02T06:40:01.991Z,79.89
2023-03-02T06:42:28.538Z,79.64
2023-03-02T06:44:55.177Z,79.44
2023-03-02T06:47:22.463Z,78.87
2023-03-02T06:49:49.182Z,79.83
2023-03-02T06:52:15.959Z,80.67
2023-03-02T06:54:42.553Z,79.51
2023-03-02T06:57:09.256Z,79.55
2023-03-02T06:59:35.617Z,83.32
2023-03-02T07:02:02.042Z,84.36
2023-03-02T07:04:28.492Z,84.18
2023-03-02T07:06:55.401Z,84.79
2023-03-02T07:09:22.280Z,83.57
2023-03-02T07:11:49.336Z,82.42
2023-03-02T07:14:15.722Z,80.64
2023-03-02T07:16:42.278Z,82.78
2023-03-02T07:19:13.849Z,83.22
2023-03-02T07:21:40.619Z,82.30
2023-03-02T07:24:07.508Z,80.00
2023-03-02T07:26:33.953Z,80.38
2023-03-02T07:29:00.910Z,80.50
2023-03-02T07:31:27.705Z,79.92
2023-03-02T07:33:54.089Z,79.19
2023-03-02T07:36:20.489Z,79.98
2023-03-02T07:38:48.678Z,79.71
2023-03-02T07:41:16.734Z,78.76
2023-03-02T07:43:43.493Z,79.09
2023-03-02T07:46:09.875Z,78.99
2023-03-02T07:48:36.260Z,79.38
2023-03-02T07:51:04.842Z,79.60
2023-03-02T07:53:31.842Z,78.73
2023-03-02T07:55:58.251Z,78.08
2023-03-02T07:58:24.635Z,78.45
2023-03-02T08:00:51.037Z,77.24
2023-03-02T08:03:17.419Z,76.91
2023-03-02T08:05:43.791Z,76.47
2023-03-02T08:08:10.174Z,76.01
2023-03-02T08:10:36.795Z,75.19
2023-03-02T08:13:04.796Z,75.63
2023-03-02T08:15:31.174Z,75.97
2023-03-02T08:17:57.616Z,76.50
2023-03-02T08:20:24.027Z,76.58
2023-03-02T08:22:51.744Z,76.51
2023-03-02T08:25:18.292Z,74.71
2023-03-02T08:27:45.970Z,74.29
2023-03-02T08:30:13.329Z,76.74
2023-03-02T08:32:39.922Z,76.74
2023-03-02T08:35:06.775Z,77.10
2023-03-02T08:37:34.434Z,76.00
2023-03-02T08:40:00.858Z,74.34
2023-03-02T08:42:27.233Z,75.55
2023-03-02T08:44:53.609Z,74.29
2023-03-02T08:47:19.996Z,74.02
2023-03-02T08:49:47.981Z,73.99
2023-03-02T08:52:15.248Z,74.34
2023-03-02T08:54:42.046Z,73.02
2023-03-02T08:57:11.701Z,73.53
2023-03-02T08:59:41.140Z,73.63
2023-03-02T09:02:11.244Z,73.71
2023-03-02T09:04:38.204Z,73.79
2023-03-02T09:07:04.636Z,74.29
2023-03-02T09:09:31.206Z,72.49
2023-03-02T09:11:57.570Z,73.09
2023-03-02T09:14:24.832Z,72.49
2023-03-02T09:16:52.748Z,72.40
2023-03-02T09:19:19.459Z,71.46
2023-03-02T09:21:46.112Z,72.14
2023-03-02T09:24:12.573Z,72.73
2023-03-02T09:26:39.141Z,72.08
2023-03-02T09:29:07.081Z,71.90
2023-03-02T09:31:34.877Z,71.06
2023-03-02T09:34:01.581Z,71.71
2023-03-02T09:36:27.977Z,71.67
2023-03-02T09:38:54.704Z,71.32
2023-03-02T09:41:21.010Z,71.48
2023-03-02T09:43:52.887Z,72.44
2023-03-02T09:46:34.045Z,71.14
2023-03-02T09:49:12.398Z,72.79
2023-03-02T09:52:07.304Z,73.46
2023-03-02T09:54:35.102Z,73.14
2023-03-02T09:57:01.961Z,73.49
2023-03-02T09:59:38.128Z,72.64
2023-03-02T10:02:25.328Z,71.56
2023-03-02T10:04:54.823Z,73.39
2023-03-02T10:07:30.926Z,71.55
2023-03-02T10:10:07.038Z,71.91
2023-03-02T10:12:52.592Z,71.17
2023-03-02T10:15:38.487Z,72.89
2023-03-02T10:18:15.621Z,72.33
2023-03-02T10:20:53.752Z,71.46
2023-03-02T10:23:30.305Z,69.47
2023-03-02T10:26:32.168Z,70.80
2023-03-02T10:29:10.639Z,70.78
2023-03-02T10:31:40.479Z,69.65
2023-03-02T10:34:11.119Z,69.77
2023-03-02T10:36:40.170Z,69.71
2023-03-02T10:39:15.146Z,69.12
2023-03-02T10:41:47.095Z,68.48
2023-03-02T10:44:25.387Z,66.92
2023-03-02T10:46:53.762Z,66.66
2023-03-02T10:49:29.025Z,66.98
2023-03-02T10:52:01.647Z,67.01
2023-03-02T10:54:29.991Z,66.55
2023-03-02T10:57:00.460Z,67.71
2023-03-02T10:59:43.611Z,67.24
2023-03-02T11:02:23.081Z,68.44
2023-03-02T11:04:58.412Z,68.64
2023-03-02T11:07:27.713Z,67.01
2023-03-02T11:10:01.979Z,67.94
2023-03-02T11:12:29.585Z,66.58
2023-03-02T11:15:19.235Z,67.08
2023-03-02T11:17:48.895Z,68.01
2023-03-02T11:20:21.958Z,67.52
2023-03-02T11:22:57.778Z,68.34
2023-03-02T11:25:31.766Z,67.82
2023-03-02T11:28:34.363Z,67.72
2023-03-02T11:31:05.287Z,67.98
2023-03-02T11:33:41.421Z,68.94
2023-03-02T11:36:15.865Z,68.00
2023-03-02T11:38:54.531Z,66.41
2023-03-02T11:41:29.736Z,66.15
2023-03-02T11:44:01.338Z,68.56
2023-03-02T11:46:32.422Z,68.52
2023-03-02T11:49:12.516Z,68.50
2023-03-02T11:51:56.671Z,66.81
2023-03-02T11:54:36.741Z,67.93
2023-03-02T11:57:04.072Z,66.80
2023-03-02T11:59:31.884Z,65.32
2023-03-02T12:02:00.588Z,65.77
2023-03-02T12:04:33.735Z,66.48
2023-03-02T12:07:17.210Z,66.97
2023-03-02T12:09:43.886Z,67.58
2023-03-02T12:12:19.120Z,67.40
2023-03-02T12:14:45.539Z,67.07
2023-03-02T12:17:27.455Z,66.89
2023-03-02T12:20:07.512Z,67.50
2023-03-02T12:22:35.328Z,67.83
2023-03-02T12:25:27.290Z,65.68
2023-03-02T12:27:55.000Z,66.11
2023-03-02T12:30:27.785Z,66.20
2023-03-02T12:33:17.778Z,65.77
2023-03-02T12:35:45.369Z,66.84
2023-03-02T12:38:43.895Z,66.14
2023-03-02T12:41:31.156Z,67.07
2023-03-02T12:44:18.463Z,65.20
2023-03-02T12:46:46.527Z,64.25
2023-03-02T12:49:27.239Z,62.03
2023-03-02T12:52:00.829Z,61.10
2023-03-02T12:54:30.088Z,60.93
2023-03-02T12:57:26.034Z,58.69
2023-03-02T12:59:55.828Z,61.76
2023-03-02T13:02:25.424Z,58.25
2023-03-02T13:04:57.628Z,57.67
2023-03-02T13:07:41.880Z,56.79
2023-03-02T13:10:25.717Z,57.85
2023-03-02T13:12:52.241Z,59.62
2023-03-02T13:15:18.946Z,57.28
2023-03-02T13:17:53.649Z,54.95
2023-03-02T13:20:21.632Z,55.86
2023-03-02T13:22:48.171Z,53.62
2023-03-02T13:25:28.427Z,55.32
2023-03-02T13:27:57.146Z,56.36
2023-03-02T13:30:28.202Z,54.05
2023-03-02T13:33:19.878Z,52.74
2023-03-02T13:35:47.505Z,52.74
2023-03-02T13:38:17.288Z,51.54
2023-03-02T13:40:49.515Z,52.72
2023-03-02T13:43:36.480Z,52.89
2023-03-02T13:46:06.729Z,54.60
2023-03-02T13:48:33.553Z,51.75
2023-03-02T13:51:03.480Z,51.73
2023-03-02T13:53:34.671Z,51.18
2023-03-02T13:56:01.368Z,51.91
2023-03-02T13:58:29.707Z,51.68
2023-03-02T14:00:56.374Z,52.15
2023-03-02T14:03:26.862Z,54.01
2023-03-02T14:05:54.402Z,53.14
2023-03-02T14:08:21.304Z,52.08
2023-03-02T14:10:50.384Z,50.32
2023-03-02T14:13:21.873Z,50.71
2023-03-02T14:15:51.385Z,52.44
2023-03-02T14:18:39.432Z,54.01
2023-03-02T14:21:11.580Z,56.39
2023-03-02T14:23:41.037Z,56.87
2023-03-02T14:26:26.397Z,54.34
2023-03-02T14:29:04.583Z,53.07
2023-03-02T14:31:32.187Z,54.02
2023-03-02T14:33:58.892Z,54.00
2023-03-02T14:36:32.211Z,54.89
2023-03-02T14:39:02.888Z,55.58
2023-03-02T14:41:30.085Z,55.08
2023-03-02T14:43:57.071Z,56.61
2023-03-02T14:46:23.580Z,56.01
2023-03-02T14:48:50.008Z,56.52
2023-03-02T14:51:23.057Z,56.50
2023-03-02T14:53:51.471Z,57.52
2023-03-02T14:56:20.109Z,57.80
2023-03-02T14:58:46.707Z,56.51
2023-03-02T15:01:13.108Z,60.87
2023-03-02T15:03:39.545Z,58.96
2023-03-02T15:06:28.817Z,57.17
2023-03-02T15:08:57.175Z,60.67
2023-03-02T15:11:24.784Z,60.75
2023-03-02T15:13:51.211Z,61.87
2023-03-02T15:16:17.747Z,63.89
2023-03-02T15:18:44.427Z,63.34
2023-03-02T15:21:17.056Z,62.85
2023-03-02T15:23:43.760Z,63.90
2023-03-02T15:26:11.714Z,63.78
2023-03-02T15:28:38.147Z,63.53
2023-03-02T15:31:14.222Z,63.21
2023-03-02T15:33:41.235Z,63.57
2023-03-02T15:36:07.945Z,62.98
2023-03-02T15:38:35.806Z,62.98
2023-03-02T15:41:07.155Z,65.28
2023-03-02T15:43:34.050Z,64.98
2023-03-02T15:46:02.199Z,65.27
2023-03-02T15:48:31.648Z,65.99
2023-03-02T15:51:04.406Z,66.64
2023-03-02T15:53:31.224Z,65.88
2023-03-02T15:55:57.693Z,66.82
2023-03-02T15:58:24.361Z,67.38
2023-03-02T16:00:53.505Z,66.76
2023-03-02T16:03:19.995Z,68.55
2023-03-02T16:05:46.427Z,69.37
2023-03-02T16:08:12.835Z,68.54
2023-03-02T16:10:42.730Z,69.11
2023-03-02T16:13:10.405Z,71.29
2023-03-02T16:15:40.062Z,72.12
2023-03-02T16:18:07.856Z,71.51
2023-03-02T16:20:36.141Z,71.24
2023-03-02T16:23:05.978Z,70.69
2023-03-02T16:25:39.646Z,71.12
2023-03-02T16:28:07.256Z,70.93
2023-03-02T16:30:34.563Z,71.64
2023-03-02T16:33:03.502Z,70.71
2023-03-02T16:35:31.527Z,70.24
2023-03-02T16:37:57.941Z,72.03
2023-03-02T16:40:24.821Z,72.58
2023-03-02T16:42:51.300Z,72.85
2023-03-02T16:45:19.154Z,72.95
2023-03-02T16:47:45.646Z,73.95
2023-03-02T16:50:13.328Z,74.17
2023-03-02T16:52:40.037Z,75.53
2023-03-02T16:55:13.378Z,73.86
2023-03-02T16:57:39.763Z,74.61
2023-03-02T17:00:08.494Z,74.43
2023-03-02T17:02:34.914Z,74.22
2023-03-02T17:05:01.272Z,75.41
2023-03-02T17:07:27.999Z,74.42
2023-03-02T17:09:54.463Z,75.22
2023-03-02T17:12:20.930Z,75.14
2023-03-02T17:14:47.411Z,74.89
2023-03-02T17:17:13.814Z,76.30
2023-03-02T17:19:40.193Z,75.88
2023-03-02T17:22:06.648Z,78.08
2023-03-02T17:24:33.590Z,77.57
2023-03-02T17:27:00.109Z,77.00
2023-03-02T17:29:26.728Z,76.19
2023-03-02T17:31:53.404Z,76.66
2023-03-02T17:34:19.986Z,75.84
2023-03-02T17:36:46.389Z,75.21
2023-03-02T17:39:12.873Z,74.69
2023-03-02T17:41:39.571Z,75.14
2023-03-02T17:44:06.116Z,76.20
2023-03-02T17:46:33.254Z,76.31
2023-03-02T17:49:00.625Z,76.13
2023-03-02T17:51:28.591Z,75.48
2023-03-02T17:53:55.881Z,76.85
2023-03-02T17:56:26.264Z,77.90
2023-03-02T17:59:02.150Z,77.03
2023-03-02T18:01:29.427Z,75.91
2023-03-02T18:04:23.099Z,78.41
2023-03-02T18:06:56.074Z,76.70
2023-03-02T18:09:22.628Z,76.79
2023-03-02T18:11:49.215Z,76.81
2023-03-02T18:14:18.299Z,77.25
2023-03-02T18:16:45.407Z,80.08
2023-03-02T18:19:12.013Z,78.47
2023-03-02T18:21:40.120Z,78.62
2023-03-02T18:24:06.904Z,78.07
2023-03-02T18:26:33.519Z,77.07
2023-03-02T18:28:59.939Z,78.33
2023-03-02T18:31:26.419Z,77.92
2023-03-02T18:33:53.081Z,77.48
2023-03-02T18:36:19.524Z,78.27
2023-03-02T18:38:45.905Z,78.04
2023-03-02T18:41:13.525Z,77.72
2023-03-02T18:43:41.300Z,77.56
2023-03-02T18:46:13.801Z,77.55
2023-03-02T18:48:40.245Z,78.54
2023-03-02T18:51:06.620Z,77.89
2023-03-02T18:53:33.340Z,79.12
2023-03-02T18:55:59.737Z,78.19
2023-03-02T18:58:26.594Z,77.72
2023-03-02T19:00:54.079Z,77.41
2023-03-02T19:03:20.679Z,78.50
2023-03-02T19:05:47.073Z,77.92
2023-03-02T19:08:13.546Z,80.05
2023-03-02T19:10:42.216Z,79.95
2023-03-02T19:13:11.499Z,78.99
2023-03-02T19:15:41.943Z,79.28
2023-03-02T19:18:08.755Z,80.52
2023-03-02T19:20:35.482Z,80.62
2023-03-02T19:23:01.835Z,79.89
2023-03-02T19:25:28.230Z,79.74
2023-03-02T19:27:54.592Z,79.77
2023-03-02T19:30:24.423Z,79.39
2023-03-02T19:32:53.985Z,80.96
2023-03-02T19:35:22.734Z,80.77
2023-03-02T19:37:49.102Z,79.74
2023-03-02T19:40:19.953Z,79.10
2023-03-02T19:42:47.403Z,78.69
2023-03-02T19:45:18.910Z,79.32
2023-03-02T19:47:47.043Z,78.60
2023-03-02T19:50:15.185Z,81.47
2023-03-02T19:52:42.022Z,79.78
2023-03-02T19:55:10.485Z,80.98
2023-03-02T19:57:37.996Z,81.15
2023-03-02T20:00:07.311Z,80.71
2023-03-02T20:02:35.939Z,83.14
2023-03-02T20:05:03.865Z,82.72
2023-03-02T20:07:30.242Z,80.83
2023-03-02T20:09:56.604Z,80.51
2023-03-02T20:12:22.964Z,82.00
2023-03-02T20:14:51.077Z,82.18
2023-03-02T20:17:19.559Z,81.51
2023-03-02T20:19:47.019Z,81.39
2023-03-02T20:22:14.074Z,81.31
2023-03-02T20:24:41.252Z,80.50
2023-03-02T20:27:08.217Z,80.50
2023-03-02T20:29:35.733Z,80.24
2023-03-02T20:32:04.386Z,80.08
2023-03-02T20:34:31.516Z,80.96
2023-03-02T20:36:58.190Z,80.34
2023-03-02T20:39:28.266Z,82.41
2023-03-02T20:41:54.925Z,83.53
2023-03-02T20:44:22.298Z,84.55
2023-03-02T20:46:53.580Z,82.73
2023-03-02T20:49:20.763Z,82.13
2023-03-02T20:51:52.749Z,83.70
2023-03-02T20:54:25.288Z,84.11
2023-03-02T20:56:52.185Z,83.67
2023-03-02T20:59:18.588Z,83.53
2023-03-02T21:01:45.007Z,82.81
2023-03-02T21:04:11.600Z,83.39
2023-03-02T21:06:38.311Z,84.66
2023-03-02T21:09:07.232Z,84.89
2023-03-02T21:11:34.192Z,84.77
2023-03-02T21:14:02.173Z,83.88
2023-03-02T21:16:35.611Z,84.76
2023-03-02T21:19:04.184Z,83.24
2023-03-02T21:21:41.119Z,82.43
2023-03-02T21:24:12.599Z,82.04
2023-03-02T21:26:41.409Z,81.71
2023-03-02T21:29:09.352Z,81.60
2023-03-02T21:31:35.871Z,81.85
2023-03-02T21:34:02.317Z,81.60
2023-03-02T21:36:28.865Z,82.71
2023-03-02T21:38:55.503Z,82.12
2023-03-02T21:41:22.085Z,81.67
2023-03-02T21:43:49.449Z,81.72
2023-03-02T21:46:19.363Z,81.40
2023-03-02T21:48:46.433Z,81.84
2023-03-02T21:51:13.980Z,82.32
2023-03-02T21:53:40.517Z,81.31
2023-03-02T21:56:07.378Z,81.13
2023-03-02T21:58:33.864Z,81.59
2023-03-02T22:01:00.372Z,81.20
2023-03-02T22:03:26.896Z,80.79
2023-03-02T22:05:53.273Z,80.05
2023-03-02T22:08:21.238Z,80.36
2023-03-02T22:10:50.263Z,80.30
2023-03-02T22:13:23.425Z,79.41
2023-03-02T22:15:57.638Z,80.55
2023-03-02T22:18:26.939Z,81.13
2023-03-02T22:20:53.402Z,80.21
2023-03-02T22:23:26.145Z,80.48
2023-03-02T22:25:55.235Z,79.13
2023-03-02T22:28:24.419Z,79.66
2023-03-02T22:30:52.337Z,78.67
2023-03-02T22:33:27.706Z,78.61
2023-03-02T22:36:04.268Z,77.98
2023-03-02T22:38:30.999Z,77.89
2023-03-02T22:40:57.520Z,78.01
2023-03-02T22:43:29.215Z,77.31
2023-03-02T22:46:08.654Z,78.24
2023-03-02T22:48:36.641Z,80.01
2023-03-02T22:51:16.710Z,77.88
2023-03-02T22:53:48.662Z,77.83
2023-03-02T22:56:37.232Z,77.77
2023-03-02T22:59:35.764Z,77.94
2023-03-02T23:02:08.421Z,78.04
2023-03-02T23:04:38.175Z,77.96
2023-03-02T23:07:22.071Z,78.28
2023-03-02T23:09:49.025Z,78.00
2023-03-02T23:12:18.311Z,76.96
2023-03-02T23:14:51.432Z,76.43
2023-03-02T23:17:38.587Z,76.89
2023-03-02T23:20:09.741Z,77.84
2023-03-02T23:22:36.577Z,77.22
2023-03-02T23:25:03.580Z,78.79
2023-03-02T23:27:30.002Z,79.92
2023-03-02T23:29:56.469Z,78.56
2023-03-02T23:32:22.964Z,79.17
2023-03-02T23:34:50.092Z,78.25
2023-03-02T23:37:16.511Z,78.10
2023-03-02T23:39:45.644Z,79.29
2023-03-02T23:42:18.488Z,79.42
2023-03-02T23:44:45.241Z,80.71
2023-03-02T23:47:12.100Z,79.22
2023-03-02T23:49:38.631Z,79.16
2023-03-02T23:52:05.581Z,79.27
2023-03-02T23:54:46.145Z,75.69
2023-03-02T23:57:12.811Z,75.94
2023-03-02T23:59:39.470Z,76.04
